Time;durP1;ratioP1;P1;durP2;ratioP2;P2;SDS_P1;SDS_P2;PMS_P1;PMS_P2;Temp;Humidity;BMP_temperature;BMP_pressure;BME280_temperature;BME280_humidity;BME280_pressure;Samples;Min_cycle;Max_cycle;Signal;HPM_P1;HPM_P2
2023/07/18 00:00:12;;;;;;;4.55;1.88;;;18.20;69.00;;;;;;5067626;28;20388;-64
2023/07/18 00:02:39;;;;;;;5.50;1.95;;;18.20;69.20;;;;;;5051484;28;20048;-64
2023/07/18 00:05:07;;;;;;;4.68;1.63;;;18.20;69.30;;;;;;5051104;28;20034;-64
2023/07/18 00:07:34;;;;;;;4.30;1.52;;;18.20;69.30;;;;;;5066747;28;20029;-64
2023/07/18 00:10:00;;;;;;;7.18;2.13;;;18.20;69.30;;;;;;5067574;28;20117;-64
2023/07/18 00:12:26;;;;;;;6.30;1.92;;;18.20;69.40;;;;;;5067479;28;20590;-64
2023/07/18 00:14:52;;;;;;;4.63;1.63;;;18.10;69.40;;;;;;5067367;28;20116;-64
2023/07/18 00:17:17;;;;;;;6.80;2.08;;;18.20;69.50;;;;;;5050811;28;20032;-64
2023/07/18 00:19:43;;;;;;;7.75;2.22;;;18.10;69.60;;;;;;5067024;28;20034;-65
2023/07/18 00:22:09;;;;;;;6.78;2.15;;;18.10;69.60;;;;;;5068804;28;20036;-64
2023/07/18 00:24:34;;;;;;;6.95;1.80;;;18.10;69.70;;;;;;5069585;28;20391;-64
2023/07/18 00:27:00;;;;;;;7.22;2.28;;;18.10;69.70;;;;;;5066469;28;20025;-64
2023/07/18 00:29:26;;;;;;;6.93;1.92;;;18.10;69.70;;;;;;5049484;28;20082;-64
2023/07/18 00:31:53;;;;;;;6.30;2.35;;;18.10;69.80;;;;;;5051581;28;20123;-65
2023/07/18 00:34:18;;;;;;;4.85;1.65;;;18.00;69.90;;;;;;5051330;28;20108;-65
2023/07/18 00:36:45;;;;;;;9.20;2.50;;;18.00;69.90;;;;;;5049686;28;20047;-64
2023/07/18 00:39:12;;;;;;;5.93;2.00;;;18.00;70.10;;;;;;5047993;28;20032;-64
2023/07/18 00:41:38;;;;;;;5.40;1.95;;;18.00;70.20;;;;;;5066809;28;20449;-64
2023/07/18 00:44:04;;;;;;;6.70;2.35;;;18.00;70.20;;;;;;5068383;28;20087;-64
2023/07/18 00:46:31;;;;;;;6.63;2.30;;;17.90;70.10;;;;;;5068513;28;20042;-64
2023/07/18 00:48:57;;;;;;;9.48;2.80;;;17.90;70.20;;;;;;5050664;28;20132;-65
2023/07/18 00:51:24;;;;;;;6.53;2.40;;;17.90;70.30;;;;;;5051477;28;20430;-64
2023/07/18 00:53:52;;;;;;;5.57;2.13;;;17.90;70.40;;;;;;5066395;28;20020;-64
2023/07/18 00:56:18;;;;;;;5.90;1.88;;;17.90;70.40;;;;;;5034178;28;20025;-65
2023/07/18 00:58:45;;;;;;;5.57;2.13;;;17.90;70.60;;;;;;5049626;28;20945;-64
2023/07/18 01:01:11;;;;;;;8.45;2.80;;;17.90;70.60;;;;;;5067390;28;20142;-64
2023/07/18 01:03:38;;;;;;;5.90;2.22;;;17.90;70.60;;;;;;5069841;28;20111;-64
2023/07/18 01:06:07;;;;;;;7.43;2.10;;;17.80;70.60;;;;;;5068245;28;20036;-64
2023/07/18 01:08:33;;;;;;;6.93;2.22;;;17.80;70.60;;;;;;5067809;28;20032;-64
2023/07/18 01:10:59;;;;;;;5.05;1.90;;;17.80;70.60;;;;;;5046926;28;20508;-64
2023/07/18 01:13:25;;;;;;;7.30;2.15;;;17.80;70.70;;;;;;5053090;28;20068;-64
2023/07/18 01:15:51;;;;;;;7.22;1.98;;;17.70;70.70;;;;;;5072399;28;20056;-64
2023/07/18 01:18:17;;;;;;;6.05;2.03;;;17.70;71.40;;;;;;5053936;28;20017;-64
2023/07/18 01:20:45;;;;;;;7.43;2.20;;;17.60;70.70;;;;;;5054006;28;20045;-64
2023/07/18 01:23:11;;;;;;;7.40;2.20;;;17.60;70.80;;;;;;5070405;28;20024;-64
2023/07/18 01:25:37;;;;;;;10.48;2.35;;;17.60;70.80;;;;;;5072315;28;20047;-64
2023/07/18 01:28:06;;;;;;;6.18;2.33;;;17.60;70.80;;;;;;5055060;28;20048;-64
2023/07/18 01:30:32;;;;;;;6.22;2.47;;;17.60;70.90;;;;;;5072143;28;20028;-64
2023/07/18 01:32:58;;;;;;;6.43;2.25;;;17.50;70.90;;;;;;5071013;28;20369;-64
2023/07/18 01:35:26;;;;;;;5.28;1.77;;;17.50;71.00;;;;;;5068361;28;20040;-64
2023/07/18 01:37:53;;;;;;;5.90;2.10;;;17.50;71.00;;;;;;5071948;28;20021;-64
2023/07/18 01:40:20;;;;;;;9.82;2.20;;;17.50;71.10;;;;;;5070171;28;20334;-64
2023/07/18 01:42:51;;;;;;;5.55;2.15;;;17.50;71.20;;;;;;5070779;28;20361;-64
2023/07/18 01:45:21;;;;;;;6.80;2.40;;;17.40;71.20;;;;;;5067099;28;20088;-64
2023/07/18 01:47:48;;;;;;;6.68;2.00;;;17.40;71.20;;;;;;5051325;28;20159;-64
2023/07/18 01:50:14;;;;;;;6.72;2.13;;;17.40;71.30;;;;;;5053746;28;20749;-64
2023/07/18 01:52:40;;;;;;;8.00;2.28;;;17.30;71.30;;;;;;5054737;28;20093;-64
2023/07/18 01:55:06;;;;;;;6.57;1.98;;;17.30;71.40;;;;;;5070369;28;20111;-64
2023/07/18 01:57:46;;;;;;;7.95;2.67;;;17.30;71.50;;;;;;5069738;28;20112;-64
2023/07/18 02:00:18;;;;;;;7.07;2.30;;;17.30;71.50;;;;;;5053636;28;20121;-64
2023/07/18 02:02:48;;;;;;;6.43;1.90;;;17.30;71.50;;;;;;5069960;28;20122;-64
2023/07/18 02:05:22;;;;;;;8.75;2.38;;;17.30;71.60;;;;;;5051301;28;20358;-64
2023/07/18 02:07:48;;;;;;;6.53;2.20;;;17.20;71.60;;;;;;5052462;28;20038;-64
2023/07/18 02:10:19;;;;;;;7.35;2.70;;;17.20;71.60;;;;;;5037038;28;20085;-64
2023/07/18 02:12:45;;;;;;;7.78;2.50;;;17.20;71.70;;;;;;5053874;28;20020;-64
2023/07/18 02:15:13;;;;;;;5.47;2.20;;;17.20;71.80;;;;;;5052558;28;20040;-64
2023/07/18 02:17:39;;;;;;;8.68;2.63;;;17.20;72.40;;;;;;5068941;28;20111;-64
2023/07/18 02:20:06;;;;;;;7.75;2.20;;;17.20;71.90;;;;;;5053603;28;20167;-64
2023/07/18 02:22:35;;;;;;;6.88;2.72;;;17.10;71.80;;;;;;5050896;28;20105;-65
2023/07/18 02:25:02;;;;;;;5.82;2.50;;;17.10;71.90;;;;;;5067961;28;20441;-64
2023/07/18 02:27:37;;;;;;;5.57;2.35;;;17.10;71.90;;;;;;5068246;28;20025;-64
2023/07/18 02:30:08;;;;;;;6.68;2.80;;;17.10;72.60;;;;;;5069896;28;20029;-64
2023/07/18 02:32:34;;;;;;;8.35;2.70;;;17.00;72.00;;;;;;5067820;28;20102;-64
2023/07/18 02:35:00;;;;;;;7.15;2.67;;;17.10;72.10;;;;;;5070322;28;20012;-64
2023/07/18 02:37:26;;;;;;;7.00;2.70;;;17.10;72.10;;;;;;5069287;28;20115;-64
2023/07/18 02:39:53;;;;;;;5.50;2.25;;;17.00;72.10;;;;;;5069812;28;20021;-64
2023/07/18 02:42:19;;;;;;;6.95;3.05;;;17.00;72.20;;;;;;5052223;28;20520;-64
2023/07/18 02:44:45;;;;;;;8.18;3.17;;;17.00;72.20;;;;;;5068722;28;20024;-64
2023/07/18 02:47:11;;;;;;;8.82;2.92;;;17.00;72.30;;;;;;5067973;28;20349;-64
2023/07/18 02:49:37;;;;;;;6.63;3.00;;;17.00;72.20;;;;;;5068985;28;20047;-64
2023/07/18 02:52:03;;;;;;;5.85;2.85;;;17.00;72.30;;;;;;5068879;28;20093;-64
2023/07/18 02:54:29;;;;;;;7.32;2.70;;;17.00;72.30;;;;;;5069963;28;20468;-64
2023/07/18 02:56:56;;;;;;;7.40;3.30;;;16.90;72.30;;;;;;5052334;28;20036;-64
2023/07/18 02:59:25;;;;;;;8.68;3.30;;;17.00;72.40;;;;;;5050707;28;20016;-64
2023/07/18 03:01:57;;;;;;;7.55;3.20;;;16.90;72.40;;;;;;5051389;28;20104;-64
2023/07/18 03:04:23;;;;;;;;;;;16.90;72.30;;;;;;5052091;28;20449;-64
2023/07/18 03:06:51;;;;;;;6.38;3.17;;;16.90;72.30;;;;;;5052275;28;19916;-64
2023/07/18 03:09:17;;;;;;;11.02;3.55;;;16.80;72.40;;;;;;5067579;28;20376;-64
2023/07/18 03:11:44;;;;;;;7.35;3.28;;;16.80;72.50;;;;;;5046523;28;20027;-64
2023/07/18 03:14:12;;;;;;;7.07;2.88;;;16.80;72.50;;;;;;5050972;28;20093;-64
2023/07/18 03:16:38;;;;;;;7.78;3.42;;;16.80;72.60;;;;;;5052316;28;20025;-64
2023/07/18 03:19:05;;;;;;;6.60;2.75;;;16.80;72.60;;;;;;5068144;28;20020;-64
2023/07/18 03:21:31;;;;;;;7.45;3.10;;;16.80;72.60;;;;;;5033486;28;20545;-64
2023/07/18 03:23:57;;;;;;;7.82;2.45;;;16.80;72.70;;;;;;5069479;28;20118;-64
2023/07/18 03:26:23;;;;;;;14.85;3.15;;;16.70;72.60;;;;;;5068754;28;20036;-64
2023/07/18 03:28:52;;;;;;;7.30;2.63;;;16.70;72.60;;;;;;5068787;28;20666;-64
2023/07/18 03:31:17;;;;;;;5.43;2.20;;;16.70;73.30;;;;;;5034920;28;20107;-64
2023/07/18 03:33:43;;;;;;;6.15;2.50;;;16.70;72.70;;;;;;5069144;28;20433;-64
2023/07/18 03:36:09;;;;;;;7.18;2.47;;;16.70;72.70;;;;;;5051079;28;20025;-64
2023/07/18 03:38:35;;;;;;;6.20;2.40;;;16.70;72.70;;;;;;5069761;28;20031;-64
2023/07/18 03:41:01;;;;;;;5.50;2.42;;;16.60;72.70;;;;;;5067262;28;20083;-64
2023/07/18 03:43:27;;;;;;;6.18;2.53;;;16.60;72.80;;;;;;5068861;28;20059;-64
2023/07/18 03:45:53;;;;;;;6.40;2.45;;;16.60;72.80;;;;;;5068979;28;20527;-64
2023/07/18 03:48:18;;;;;;;5.93;2.00;;;16.60;72.90;;;;;;5051917;28;20029;-64
2023/07/18 03:50:44;;;;;;;8.48;2.65;;;16.60;72.90;;;;;;5067477;28;20017;-64
2023/07/18 03:53:10;;;;;;;5.95;2.17;;;16.60;72.90;;;;;;5068095;28;20112;-64
2023/07/18 03:55:35;;;;;;;6.13;2.50;;;16.60;72.90;;;;;;5050466;28;20522;-64
2023/07/18 03:58:01;;;;;;;5.47;2.65;;;16.60;72.90;;;;;;5068233;28;20024;-64
2023/07/18 04:00:27;;;;;;;8.30;2.55;;;16.60;72.90;;;;;;5051170;28;20020;-64
2023/07/18 04:02:53;;;;;;;5.57;2.10;;;16.60;72.90;;;;;;5050906;28;20028;-64
2023/07/18 04:05:19;;;;;;;6.00;2.25;;;16.60;72.90;;;;;;5067937;28;20090;-64
2023/07/18 04:07:46;;;;;;;7.15;2.65;;;16.60;72.90;;;;;;5068159;28;20025;-64
2023/07/18 04:10:12;;;;;;;8.50;2.60;;;16.60;73.00;;;;;;5066639;28;20063;-64
2023/07/18 04:12:41;;;;;;;7.05;2.55;;;16.60;73.00;;;;;;5068042;28;20055;-64
2023/07/18 04:15:08;;;;;;;6.10;2.53;;;16.60;73.00;;;;;;5068454;28;20036;-64
2023/07/18 04:17:34;;;;;;;6.80;2.40;;;16.60;73.10;;;;;;5067577;28;20021;-64
2023/07/18 04:20:00;;;;;;;7.25;2.45;;;16.60;73.00;;;;;;5068485;28;20353;-64
2023/07/18 04:22:29;;;;;;;7.75;2.10;;;16.60;73.10;;;;;;5066627;28;20059;-64
2023/07/18 04:24:55;;;;;;;7.80;2.67;;;16.60;73.10;;;;;;5050423;28;20043;-64
2023/07/18 04:27:21;;;;;;;7.47;2.72;;;16.60;73.10;;;;;;5049129;28;20051;-64
2023/07/18 04:29:48;;;;;;;7.03;2.50;;;16.60;73.20;;;;;;5051269;28;20035;-64
2023/07/18 04:32:14;;;;;;;6.75;2.45;;;16.60;73.20;;;;;;5066386;28;20063;-64
2023/07/18 04:34:40;;;;;;;6.85;2.70;;;16.60;73.20;;;;;;5069282;28;20021;-64
2023/07/18 04:37:05;;;;;;;5.60;2.22;;;16.50;73.20;;;;;;5048792;28;20434;-64
2023/07/18 04:39:31;;;;;;;8.32;2.50;;;16.60;73.30;;;;;;5067468;28;20033;-64
2023/07/18 04:41:57;;;;;;;5.72;2.40;;;16.60;73.30;;;;;;5065166;28;20073;-64
2023/07/18 04:44:23;;;;;;;6.45;2.60;;;16.60;73.40;;;;;;5067688;28;20156;-64
2023/07/18 04:46:49;;;;;;;5.78;2.50;;;16.60;73.40;;;;;;5069049;28;20162;-64
2023/07/18 04:49:15;;;;;;;6.50;2.17;;;16.60;73.40;;;;;;5055162;28;20048;-64
2023/07/18 04:51:41;;;;;;;5.30;2.38;;;16.60;73.50;;;;;;5054138;28;20547;-64
2023/07/18 04:54:07;;;;;;;6.60;2.35;;;16.60;73.50;;;;;;5053715;28;20044;-64
2023/07/18 04:56:32;;;;;;;8.57;2.45;;;16.60;73.60;;;;;;5038114;28;20027;-64
2023/07/18 04:58:59;;;;;;;5.88;2.47;;;16.70;73.80;;;;;;5054144;28;20017;-64
2023/07/18 05:01:24;;;;;;;6.03;2.63;;;16.70;73.70;;;;;;5071981;28;20421;-64
2023/07/18 05:03:50;;;;;;;5.60;2.25;;;16.70;73.80;;;;;;5071016;28;20059;-64
2023/07/18 05:06:16;;;;;;;5.32;2.30;;;16.70;73.80;;;;;;5072603;28;20043;-64
2023/07/18 05:08:42;;;;;;;7.55;2.67;;;16.80;73.80;;;;;;5070178;28;20024;-64
2023/07/18 05:11:08;;;;;;;8.68;2.83;;;16.80;73.90;;;;;;5071520;28;20540;-64
2023/07/18 05:13:33;;;;;;;7.05;2.50;;;16.90;73.90;;;;;;5053355;28;20488;-64
2023/07/18 05:16:00;;;;;;;5.55;2.75;;;16.90;73.90;;;;;;5071833;28;20484;-64
2023/07/18 05:18:26;;;;;;;8.65;3.30;;;17.00;73.90;;;;;;5071689;28;20024;-64
2023/07/18 05:20:58;;;;;;;7.55;3.38;;;17.10;73.90;;;;;;5070185;28;20032;-64
2023/07/18 05:23:24;;;;;;;8.85;4.07;;;17.30;73.80;;;;;;5071135;28;20047;-64
2023/07/18 05:25:50;;;;;;;11.13;3.53;;;17.70;72.70;;;;;;5053927;28;20033;-64
2023/07/18 05:28:16;;;;;;;8.32;3.95;;;18.00;72.00;;;;;;5054689;28;20052;-64
2023/07/18 05:30:41;;;;;;;8.88;4.32;;;18.10;71.70;;;;;;5054954;28;20033;-64
2023/07/18 05:33:08;;;;;;;8.60;4.07;;;18.10;71.70;;;;;;5071190;28;20017;-64
2023/07/18 05:35:34;;;;;;;8.77;3.42;;;18.10;71.50;;;;;;5069116;28;20040;-64
2023/07/18 05:38:01;;;;;;;9.85;4.07;;;18.20;71.40;;;;;;5070491;28;20154;-64
2023/07/18 05:40:27;;;;;;;9.85;4.22;;;18.20;71.30;;;;;;5069939;28;20473;-64
2023/07/18 05:42:53;;;;;;;7.97;3.92;;;18.20;71.40;;;;;;5070756;28;20399;-64
2023/07/18 05:45:19;;;;;;;10.90;4.40;;;18.10;71.40;;;;;;5036658;28;20037;-64
2023/07/18 05:47:45;;;;;;;8.13;3.88;;;18.10;71.50;;;;;;5054831;28;20036;-64
2023/07/18 05:50:11;;;;;;;9.00;4.10;;;18.20;71.50;;;;;;5071875;28;20020;-64
2023/07/18 05:52:37;;;;;;;8.07;4.20;;;18.30;71.20;;;;;;5053041;28;20033;-64
2023/07/18 05:55:04;;;;;;;8.93;3.50;;;18.30;70.70;;;;;;5069081;28;20030;-64
2023/07/18 05:57:30;;;;;;;10.15;4.30;;;18.40;70.30;;;;;;5038903;28;20025;-64
2023/07/18 05:59:56;;;;;;;8.65;3.28;;;18.50;70.00;;;;;;5070449;28;20126;-64
2023/07/18 06:02:22;;;;;;;9.52;3.88;;;18.60;69.80;;;;;;5070372;28;20024;-64
2023/07/18 06:04:48;;;;;;;7.53;3.55;;;18.70;69.80;;;;;;5051621;28;20036;-64
2023/07/18 06:07:15;;;;;;;7.72;3.75;;;18.80;69.30;;;;;;5053788;28;20343;-65
2023/07/18 06:09:42;;;;;;;7.25;3.58;;;18.90;68.90;;;;;;5053426;28;20124;-65
2023/07/18 06:12:08;;;;;;;9.23;4.10;;;19.00;68.70;;;;;;5070792;28;20052;-65
2023/07/18 06:14:34;;;;;;;9.52;3.70;;;19.10;68.30;;;;;;5070445;28;20376;-64
2023/07/18 06:17:01;;;;;;;6.80;3.25;;;19.20;68.00;;;;;;5073575;28;20016;-64
2023/07/18 06:19:26;;;;;;;9.00;3.70;;;19.30;67.70;;;;;;5070368;28;20306;-65
2023/07/18 06:21:53;;;;;;;9.02;3.67;;;19.30;67.40;;;;;;5053426;28;20071;-65
2023/07/18 06:24:19;;;;;;;8.52;3.83;;;19.40;67.20;;;;;;5043133;28;20415;-65
2023/07/18 06:26:48;;;;;;;7.95;3.38;;;19.40;66.90;;;;;;5068155;28;20107;-65
2023/07/18 06:29:20;;;;;;;7.40;3.50;;;19.50;66.50;;;;;;5074436;28;20032;-65
2023/07/18 06:31:50;;;;;;;9.40;3.55;;;19.60;66.20;;;;;;5053337;28;20044;-65
2023/07/18 06:34:17;;;;;;;7.72;3.53;;;19.70;66.10;;;;;;5072031;28;20028;-65
2023/07/18 06:36:44;;;;;;;7.80;3.60;;;19.80;65.80;;;;;;5068729;28;20037;-65
2023/07/18 06:39:11;;;;;;;9.20;3.20;;;19.90;65.40;;;;;;5072939;28;20021;-65
2023/07/18 06:41:37;;;;;;;8.65;3.47;;;20.00;65.30;;;;;;5050941;28;20025;-65
2023/07/18 06:44:05;;;;;;;7.40;3.35;;;20.10;65.10;;;;;;5066678;28;20352;-65
2023/07/18 06:46:31;;;;;;;10.30;3.70;;;20.30;64.60;;;;;;5054342;28;20183;-65
2023/07/18 06:48:57;;;;;;;7.18;3.17;;;20.40;64.30;;;;;;5069562;28;20062;-65
2023/07/18 06:51:25;;;;;;;8.15;3.40;;;20.50;64.10;;;;;;5069583;28;20028;-65
2023/07/18 06:53:52;;;;;;;9.05;3.83;;;20.60;63.80;;;;;;5067878;28;20393;-65
2023/07/18 06:56:18;;;;;;;8.48;3.47;;;20.70;63.40;;;;;;5067757;28;20333;-64
2023/07/18 06:58:44;;;;;;;7.43;3.08;;;20.90;63.10;;;;;;5068551;28;20022;-66
2023/07/18 07:01:10;;;;;;;6.90;3.22;;;20.90;62.50;;;;;;5069659;28;20416;-65
2023/07/18 07:03:36;;;;;;;8.07;3.67;;;21.00;62.10;;;;;;5070109;28;20055;-65
2023/07/18 07:06:08;;;;;;;7.18;3.50;;;21.20;61.80;;;;;;5035350;28;20356;-65
2023/07/18 07:08:33;;;;;;;7.72;2.95;;;21.30;61.40;;;;;;5068911;28;20432;-65
2023/07/18 07:11:07;;;;;;;8.18;3.33;;;21.40;61.20;;;;;;5069350;28;20051;-65
2023/07/18 07:13:35;;;;;;;9.13;3.60;;;21.50;60.70;;;;;;5069042;28;20093;-66
2023/07/18 07:16:03;;;;;;;6.65;3.03;;;21.70;60.60;;;;;;5070580;28;20024;-66
2023/07/18 07:18:29;;;;;;;8.82;2.80;;;21.80;60.40;;;;;;5070071;28;20047;-65
2023/07/18 07:20:55;;;;;;;9.98;2.97;;;21.90;59.90;;;;;;5049889;28;20628;-65
2023/07/18 07:23:21;;;;;;;6.75;2.63;;;22.00;59.50;;;;;;5050991;28;20139;-65
2023/07/18 07:25:47;;;;;;;8.82;3.50;;;22.20;59.20;;;;;;5066631;28;20051;-65
2023/07/18 07:28:12;;;;;;;7.18;3.00;;;22.30;58.80;;;;;;5069030;28;20124;-65
2023/07/18 07:30:38;;;;;;;8.15;2.95;;;22.40;58.60;;;;;;5069702;28;20040;-65
2023/07/18 07:33:05;;;;;;;8.68;3.08;;;22.50;58.30;;;;;;5067818;28;20033;-65
2023/07/18 07:35:31;;;;;;;8.80;2.50;;;22.70;57.90;;;;;;5069450;28;20454;-65
2023/07/18 07:37:56;;;;;;;6.50;3.13;;;22.90;57.50;;;;;;5068544;28;20027;-65
2023/07/18 07:40:22;;;;;;;8.27;2.70;;;23.10;57.20;;;;;;5050192;28;20479;-65
2023/07/18 07:42:48;;;;;;;8.10;2.92;;;23.20;56.80;;;;;;5069095;28;20087;-66
2023/07/18 07:45:14;;;;;;;7.53;2.85;;;23.30;56.20;;;;;;5051299;28;20051;-66
2023/07/18 07:47:40;;;;;;;7.35;2.80;;;23.50;55.80;;;;;;5068695;28;20028;-66
2023/07/18 07:50:07;;;;;;;6.40;2.17;;;23.60;55.50;;;;;;5068457;28;20028;-66
2023/07/18 07:52:34;;;;;;;6.60;2.60;;;23.70;55.20;;;;;;5070316;28;20029;-66
2023/07/18 07:55:00;;;;;;;9.23;3.08;;;23.80;54.80;;;;;;5068519;28;20092;-65
2023/07/18 07:57:26;;;;;;;8.73;2.88;;;23.90;54.40;;;;;;5067700;28;20449;-66
2023/07/18 07:59:51;;;;;;;6.18;2.40;;;24.00;54.20;;;;;;5067077;28;20036;-66
2023/07/18 08:02:19;;;;;;;8.93;2.78;;;24.10;54.00;;;;;;5068846;28;20025;-66
2023/07/18 08:04:48;;;;;;;11.75;3.22;;;24.30;53.80;;;;;;5067346;28;20036;-65
2023/07/18 08:07:15;;;;;;;7.60;2.42;;;24.30;53.50;;;;;;5067102;28;20032;-66
2023/07/18 08:09:41;;;;;;;7.50;2.70;;;24.50;53.10;;;;;;5050180;28;20024;-65
2023/07/18 08:12:09;;;;;;;5.53;2.58;;;24.60;52.70;;;;;;5049873;28;20016;-66
2023/07/18 08:14:37;;;;;;;6.43;2.53;;;24.70;52.50;;;;;;5050109;28;20032;-65
2023/07/18 08:17:04;;;;;;;7.20;2.10;;;24.80;52.50;;;;;;5049882;28;20170;-66
2023/07/18 08:19:32;;;;;;;8.77;2.63;;;24.80;52.00;;;;;;5068125;28;20122;-66
2023/07/18 08:21:58;;;;;;;6.00;2.50;;;24.90;51.60;;;;;;5067249;28;20051;-64
2023/07/18 08:24:24;;;;;;;4.78;1.63;;;25.00;51.30;;;;;;5066591;28;20048;-65
2023/07/18 08:26:50;;;;;;;5.90;2.17;;;25.10;50.90;;;;;;5069021;28;20025;-66
2023/07/18 08:29:16;;;;;;;5.40;1.80;;;25.10;50.60;;;;;;5065867;28;20027;-66
2023/07/18 08:31:42;;;;;;;7.20;1.60;;;25.20;50.20;;;;;;5066642;28;20370;-65
2023/07/18 08:34:08;;;;;;;4.68;1.70;;;25.20;49.70;;;;;;5067769;28;20031;-67
2023/07/18 08:36:36;;;;;;;4.35;1.40;;;25.30;49.50;;;;;;5051064;28;20043;-63
2023/07/18 08:39:03;;;;;;;3.88;1.63;;;25.40;49.40;;;;;;5066175;28;20027;-63
2023/07/18 08:41:29;;;;;;;5.70;1.70;;;25.50;49.30;;;;;;5070790;28;20334;-64
2023/07/18 08:43:55;;;;;;;4.68;1.58;;;25.50;49.20;;;;;;5073396;28;20035;-64
2023/07/18 08:46:21;;;;;;;6.90;1.95;;;25.60;48.90;;;;;;5055585;28;20429;-63
2023/07/18 08:48:48;;;;;;;4.53;1.55;;;25.60;48.80;;;;;;5054873;28;20094;-63
2023/07/18 08:51:14;;;;;;;3.80;1.15;;;25.60;48.80;;;;;;5072064;28;20024;-63
2023/07/18 08:53:41;;;;;;;3.50;1.33;;;25.70;48.60;;;;;;5070312;28;20031;-63
2023/07/18 08:56:10;;;;;;;4.90;1.35;;;25.70;48.10;;;;;;5072795;28;20024;-63
2023/07/18 08:58:37;;;;;;;7.45;1.52;;;25.80;48.00;;;;;;5072339;28;20417;-63
2023/07/18 09:01:08;;;;;;;2.92;0.90;;;25.80;47.90;;;;;;5073707;28;20361;-64
2023/07/18 09:03:34;;;;;;;4.03;1.20;;;25.80;47.60;;;;;;5071552;28;20040;-64
2023/07/18 09:06:04;;;;;;;2.17;0.90;;;25.80;47.60;;;;;;5073895;28;20033;-64
2023/07/18 09:08:45;;;;;;;4.72;1.40;;;25.80;47.60;;;;;;5073427;28;20033;-64
2023/07/18 09:11:14;;;;;;;;;;;25.80;47.70;;;;;;5074054;28;20082;-63
2023/07/18 09:13:41;;;;;;;2.65;1.20;;;25.90;48.00;;;;;;5072058;28;19912;-64
2023/07/18 09:16:12;;;;;;;2.75;1.17;;;25.90;47.60;;;;;;5054496;28;20039;-64
2023/07/18 09:18:38;;;;;;;5.40;1.42;;;25.90;47.40;;;;;;5049563;28;20024;-63
2023/07/18 09:21:09;;;;;;;3.45;1.25;;;25.80;47.60;;;;;;5068485;28;20032;-63
2023/07/18 09:23:38;;;;;;;;;;;25.80;47.40;;;;;;5066565;28;20052;-63
2023/07/18 09:26:13;;;;;;;4.20;0.93;;;25.90;47.70;;;;;;5068991;28;19912;-65
2023/07/18 09:28:39;;;;;;;2.67;1.20;;;25.90;47.20;;;;;;5066319;28;20040;-63
2023/07/18 09:31:25;;;;;;;2.45;0.80;;;26.00;47.00;;;;;;5067754;28;20089;-63
2023/07/18 09:33:54;;;;;;;3.28;1.10;;;26.20;46.50;;;;;;5050891;28;20075;-64
2023/07/18 09:36:22;;;;;;;2.80;1.00;;;26.30;46.30;;;;;;5073205;28;20028;-66
2023/07/18 09:38:49;;;;;;;3.65;1.13;;;26.30;46.10;;;;;;5053266;28;20123;-66
2023/07/18 09:41:19;;;;;;;2.67;1.00;;;26.40;45.80;;;;;;5071078;28;20020;-66
2023/07/18 09:43:46;;;;;;;3.35;1.08;;;26.60;45.50;;;;;;5069594;28;20044;-66
2023/07/18 09:46:13;;;;;;;3.30;1.25;;;26.80;45.50;;;;;;5069137;28;20021;-64
2023/07/18 09:48:45;;;;;;;3.08;1.02;;;26.90;45.40;;;;;;5070453;28;20025;-64
2023/07/18 09:51:15;;;;;;;2.22;0.98;;;27.10;45.00;;;;;;5054540;28;20078;-66
2023/07/18 09:53:46;;;;;;;2.78;0.98;;;27.10;44.50;;;;;;5072442;28;20131;-66
2023/07/18 09:56:14;;;;;;;4.25;1.20;;;27.10;44.70;;;;;;5075079;28;20031;-66
2023/07/18 09:58:42;;;;;;;4.07;0.93;;;27.20;44.50;;;;;;5075271;28;20028;-66
2023/07/18 10:01:11;;;;;;;3.63;1.10;;;27.20;44.20;;;;;;5072418;28;20039;-66
2023/07/18 10:03:38;;;;;;;4.70;0.93;;;27.10;43.90;;;;;;5075109;28;20081;-66
2023/07/18 10:06:12;;;;;;;2.90;1.00;;;27.20;44.00;;;;;;5073133;28;20039;-64
2023/07/18 10:08:41;;;;;;;2.28;0.80;;;27.10;43.70;;;;;;5079462;28;20028;-64
2023/07/18 10:11:08;;;;;;;4.65;1.23;;;27.30;43.90;;;;;;5074263;28;20058;-65
2023/07/18 10:14:05;;;;;;;1.80;0.73;;;27.40;43.80;;;;;;5073990;28;20067;-65
2023/07/18 10:16:34;;;;;;;0.75;0.50;;;27.50;43.40;;;;;;5033546;28;20036;-66
2023/07/18 10:19:16;;;;;;;3.60;0.93;;;27.50;43.20;;;;;;5065573;28;20024;-66
2023/07/18 10:21:50;;;;;;;2.95;1.10;;;27.70;42.90;;;;;;5075709;28;20032;-66
2023/07/18 10:24:19;;;;;;;11.52;2.22;;;27.70;42.50;;;;;;5071324;28;20089;-66
2023/07/18 10:27:07;;;;;;;8.10;1.77;;;27.90;42.70;;;;;;5051409;28;20313;-66
2023/07/18 10:29:38;;;;;;;1.95;1.10;;;27.90;42.70;;;;;;5071346;28;20039;-66
2023/07/18 10:32:04;;;;;;;;;;;28.00;42.50;;;;;;5058625;28;20036;-66
2023/07/18 10:34:38;;;;;;;3.75;0.85;;;28.10;42.80;;;;;;5072234;28;19915;-66
2023/07/18 10:37:07;;;;;;;2.25;0.70;;;28.10;42.00;;;;;;5069155;28;20055;-66
2023/07/18 10:39:43;;;;;;;2.72;1.08;;;28.20;42.00;;;;;;5071527;28;20037;-66
2023/07/18 10:42:09;;;;;;;4.80;1.00;;;28.30;41.80;;;;;;5069192;28;20058;-66
2023/07/18 10:44:39;;;;;;;1.55;0.70;;;28.40;41.90;;;;;;5070567;28;20113;-66
2023/07/18 10:47:13;;;;;;;2.25;0.80;;;28.40;41.70;;;;;;5053999;28;20082;-66
2023/07/18 10:49:39;;;;;;;6.03;1.50;;;28.30;41.00;;;;;;5071555;28;20032;-66
2023/07/18 10:52:06;;;;;;;4.20;1.08;;;28.20;41.10;;;;;;5071018;28;20032;-66
2023/07/18 10:54:31;;;;;;;2.78;0.95;;;28.10;40.80;;;;;;5062504;28;20021;-66
2023/07/18 10:56:57;;;;;;;2.15;0.65;;;28.10;40.70;;;;;;5073853;28;20027;-66
2023/07/18 10:59:23;;;;;;;2.22;0.82;;;28.10;41.10;;;;;;5075656;28;20433;-66
2023/07/18 11:01:48;;;;;;;3.72;1.23;;;28.20;40.90;;;;;;5075613;28;20091;-66
2023/07/18 11:04:14;;;;;;;2.53;0.82;;;28.20;40.40;;;;;;5057831;28;20121;-66
2023/07/18 11:06:53;;;;;;;2.63;0.98;;;28.20;40.50;;;;;;5074520;28;20032;-66
2023/07/18 11:09:18;;;;;;;2.35;0.85;;;28.30;40.30;;;;;;5073873;28;20103;-66
2023/07/18 11:11:44;;;;;;;1.83;0.80;;;28.10;40.70;;;;;;5075704;28;20186;-66
2023/07/18 11:14:10;;;;;;;3.10;0.93;;;28.00;40.70;;;;;;5075588;28;20020;-66
2023/07/18 11:16:36;;;;;;;4.20;1.27;;;28.00;40.60;;;;;;5074254;28;20315;-66
2023/07/18 11:19:05;;;;;;;4.15;1.20;;;28.10;40.50;;;;;;5074549;28;20025;-67
2023/07/18 11:21:32;;;;;;;2.22;0.95;;;28.00;40.10;;;;;;5074745;28;20029;-67
2023/07/18 11:23:59;;;;;;;3.40;1.10;;;28.10;40.40;;;;;;5075131;28;20043;-66
2023/07/18 11:26:25;;;;;;;2.17;0.70;;;28.10;40.50;;;;;;5074880;28;20024;-66
2023/07/18 11:28:57;;;;;;;3.17;0.90;;;28.10;40.20;;;;;;5072797;28;20096;-66
2023/07/18 11:31:30;;;;;;;4.85;1.50;;;28.20;40.60;;;;;;5073645;28;20032;-66
2023/07/18 11:33:57;;;;;;;5.25;1.27;;;28.20;40.40;;;;;;5061174;28;20094;-67
2023/07/18 11:36:36;;;;;;;4.40;1.40;;;28.20;40.30;;;;;;5057256;28;20090;-66
2023/07/18 11:39:05;;;;;;;2.55;0.95;;;28.20;40.30;;;;;;5055690;28;20031;-66
2023/07/18 11:41:35;;;;;;;3.92;1.38;;;28.10;40.30;;;;;;5074480;28;20063;-66
2023/07/18 11:44:05;;;;;;;2.58;1.10;;;28.10;40.20;;;;;;5074368;28;20013;-66
2023/07/18 11:46:41;;;;;;;2.90;1.10;;;28.20;40.10;;;;;;5074564;28;20039;-66
2023/07/18 11:49:08;;;;;;;3.13;1.05;;;28.20;40.50;;;;;;5073011;28;20373;-66
2023/07/18 11:51:35;;;;;;;4.78;1.10;;;28.20;40.60;;;;;;5074426;28;20032;-67
2023/07/18 11:54:03;;;;;;;2.50;1.05;;;28.20;40.80;;;;;;5074815;28;20082;-66
2023/07/18 11:56:37;;;;;;;3.55;1.10;;;28.30;40.80;;;;;;5074316;28;20028;-67
2023/07/18 11:59:03;;;;;;;3.40;0.90;;;28.30;40.80;;;;;;5072814;28;20432;-66
2023/07/18 12:01:32;;;;;;;3.28;0.98;;;28.30;40.70;;;;;;5074145;28;20048;-67
2023/07/18 12:03:58;;;;;;;3.60;1.10;;;28.30;40.60;;;;;;5074609;28;20029;-66
2023/07/18 12:06:23;;;;;;;2.75;0.90;;;28.00;40.50;;;;;;5074712;28;20024;-67
2023/07/18 12:08:49;;;;;;;2.65;0.90;;;27.90;40.40;;;;;;5073431;28;20367;-67
2023/07/18 12:11:16;;;;;;;2.17;0.82;;;27.80;40.20;;;;;;5072811;28;20067;-66
2023/07/18 12:13:41;;;;;;;1.65;0.90;;;27.70;40.00;;;;;;5074303;28;20230;-66
2023/07/18 12:16:07;;;;;;;3.45;1.00;;;27.70;40.10;;;;;;5073691;28;20059;-67
2023/07/18 12:18:33;;;;;;;3.17;0.80;;;27.60;40.00;;;;;;5074246;28;20052;-67
2023/07/18 12:21:00;;;;;;;2.05;1.00;;;27.50;39.70;;;;;;5072143;28;20044;-67
2023/07/18 12:23:26;;;;;;;2.42;0.95;;;27.40;39.60;;;;;;5074217;28;20098;-66
2023/07/18 12:25:52;;;;;;;2.45;0.80;;;27.30;39.70;;;;;;5074321;28;20360;-67
2023/07/18 12:28:18;;;;;;;2.70;0.82;;;27.20;39.80;;;;;;5074180;28;20024;-67
2023/07/18 12:30:44;;;;;;;2.05;0.80;;;27.20;39.80;;;;;;5072421;28;20035;-67
2023/07/18 12:33:09;;;;;;;1.45;0.65;;;27.10;39.50;;;;;;5074282;28;20047;-67
2023/07/18 12:35:36;;;;;;;1.88;0.80;;;27.10;39.70;;;;;;5073941;28;20020;-67
2023/07/18 12:38:02;;;;;;;2.17;1.00;;;27.00;39.90;;;;;;5074176;28;20024;-67
2023/07/18 12:40:27;;;;;;;1.67;0.73;;;27.00;40.10;;;;;;5073056;28;20062;-67
2023/07/18 12:42:53;;;;;;;2.42;0.93;;;27.00;40.40;;;;;;5072783;28;20043;-67
2023/07/18 12:45:19;;;;;;;1.83;0.82;;;27.00;40.30;;;;;;5073868;28;20043;-67
2023/07/18 12:47:45;;;;;;;4.03;0.77;;;26.90;40.30;;;;;;5073797;28;20322;-67